Time;durP1;ratioP1;P1;durP2;ratioP2;P2;SDS_P1;SDS_P2;PMS_P1;PMS_P2;Temp;Humidity;BMP_temperature;BMP_pressure;BME280_temperature;BME280_humidity;BME280_pressure;Samples;Min_cycle;Max_cycle;Signal;HPM_P1;HPM_P2
2022/10/05 00:01:30;;;;;;;6.70;5.70;;;;;;;;;;5136973;27;20015;-74
2022/10/05 00:04:17;;;;;;;8.30;5.32;;;;;;;;;;5136742;27;20367;-74
2022/10/05 00:07:15;;;;;;;7.93;5.63;;;;;;;;;;5137160;27;20520;-74
2022/10/05 00:10:08;;;;;;;7.88;5.45;;;;;;;;;;5121139;27;20041;-75
2022/10/05 00:12:53;;;;;;;10.18;5.57;;;;;;;;;;5136226;27;20023;-74
2022/10/05 00:15:39;;;;;;;8.95;5.55;;;;;;;;;;5122857;27;20110;-75
2022/10/05 00:18:25;;;;;;;8.90;5.78;;;;;;;;;;5136921;27;20025;-75
2022/10/05 00:21:18;;;;;;;7.85;5.80;;;;;;;;;;5136090;27;20019;-75
2022/10/05 00:24:08;;;;;;;8.18;5.70;;;;;;;;;;5136696;27;20019;-75
2022/10/05 00:26:54;;;;;;;8.07;5.78;;;;;;;;;;5136420;27;20023;-74
2022/10/05 00:29:39;;;;;;;7.95;5.80;;;;;;;;;;5136549;27;20111;-75
2022/10/05 00:32:25;;;;;;;8.70;6.40;;;;;;;;;;5121640;27;20026;-74
2022/10/05 00:35:11;;;;;;;10.35;6.22;;;;;;;;;;5136209;27;20027;-74
2022/10/05 00:37:57;;;;;;;8.32;6.35;;;;;;;;;;5114934;27;20356;-75
2022/10/05 00:41:01;;;;;;;8.05;6.05;;;;;;;;;;5135786;27;20045;-74
2022/10/05 00:43:58;;;;;;;10.02;6.25;;;;;;;;;;5135326;27;20015;-74
2022/10/05 00:46:55;;;;;;;7.25;5.97;;;;;;;;;;5135231;27;20509;-75
2022/10/05 00:49:41;;;;;;;8.38;6.15;;;;;;;;;;5136412;27;20023;-74
2022/10/05 00:52:45;;;;;;;9.57;6.80;;;;;;;;;;5135535;27;20030;-74
2022/10/05 00:55:34;;;;;;;8.88;5.95;;;;;;;;;;5115084;28;20043;-74
2022/10/05 00:58:38;;;;;;;11.57;6.63;;;;;;;;;;5115874;28;20011;-75
2022/10/05 01:01:42;;;;;;;8.43;5.70;;;;;;;;;;5113308;28;20102;-74
2022/10/05 01:04:38;;;;;;;7.97;5.65;;;;;;;;;;5113905;28;20023;-74
2022/10/05 01:07:27;;;;;;;8.73;5.95;;;;;;;;;;5115994;28;20457;-74
2022/10/05 01:10:21;;;;;;;8.85;6.50;;;;;;;;;;5120843;28;20023;-73
2022/10/05 01:13:16;;;;;;;8.60;6.00;;;;;;;;;;5099737;28;20023;-74
2022/10/05 01:16:03;;;;;;;6.97;5.65;;;;;;;;;;5115726;28;20464;-75
2022/10/05 01:18:55;;;;;;;8.80;6.03;;;;;;;;;;5115537;28;20038;-74
2022/10/05 01:21:47;;;;;;;8.13;5.78;;;;;;;;;;5115258;28;20437;-74
2022/10/05 01:24:33;;;;;;;9.73;5.88;;;;;;;;;;5113957;28;20026;-74
2022/10/05 01:27:33;;;;;;;8.65;5.78;;;;;;;;;;5115409;28;20068;-74
2022/10/05 01:30:19;;;;;;;8.07;5.90;;;;;;;;;;5115350;28;20035;-74
2022/10/05 01:33:30;;;;;;;6.78;5.55;;;;;;;;;;5101244;28;20020;-75
2022/10/05 01:36:16;;;;;;;9.35;6.00;;;;;;;;;;5112313;28;20395;-75
2022/10/05 01:39:01;;;;;;;8.93;6.45;;;;;;;;;;5115879;27;20016;-75
2022/10/05 01:42:16;;;;;;;9.70;5.80;;;;;;;;;;5115825;28;20012;-75
2022/10/05 01:45:14;;;;;;;10.13;6.28;;;;;;;;;;5107631;28;20047;-74
2022/10/05 01:48:18;;;;;;;8.57;6.07;;;;;;;;;;5114523;28;20094;-75
2022/10/05 01:51:23;;;;;;;8.52;5.80;;;;;;;;;;5113998;28;20329;-74
2022/10/05 01:54:34;;;;;;;10.18;5.63;;;;;;;;;;5123427;28;20035;-75
2022/10/05 01:57:39;;;;;;;7.20;5.60;;;;;;;;;;5120080;28;20019;-74
2022/10/05 02:00:25;;;;;;;8.27;5.47;;;;;;;;;;5134130;28;20429;-75
2022/10/05 02:03:23;;;;;;;7.53;5.38;;;;;;;;;;5134923;28;20015;-74
2022/10/05 02:06:15;;;;;;;7.05;5.20;;;;;;;;;;5135168;28;20023;-74
2022/10/05 02:09:10;;;;;;;8.00;5.82;;;;;;;;;;5133995;28;20083;-74
2022/10/05 02:12:05;;;;;;;8.70;6.30;;;;;;;;;;5120380;27;20098;-75
2022/10/05 02:14:53;;;;;;;8.13;5.40;;;;;;;;;;5138717;27;20353;-75
2022/10/05 02:17:42;;;;;;;6.20;5.03;;;;;;;;;;5139301;27;20383;-74
2022/10/05 02:20:30;;;;;;;6.18;5.18;;;;;;;;;;5138894;27;20084;-74
2022/10/05 02:23:19;;;;;;;6.88;5.20;;;;;;;;;;5138729;27;20046;-74
2022/10/05 02:26:06;;;;;;;6.35;5.03;;;;;;;;;;5138614;27;20034;-74
2022/10/05 02:28:54;;;;;;;8.25;5.80;;;;;;;;;;5139373;27;20352;-75
2022/10/05 02:31:39;;;;;;;8.18;5.63;;;;;;;;;;5138751;27;20053;-74
2022/10/05 02:34:29;;;;;;;8.25;5.60;;;;;;;;;;5137912;27;20023;-74
2022/10/05 02:37:24;;;;;;;9.20;5.88;;;;;;;;;;5139035;27;20031;-75
2022/10/05 02:40:18;;;;;;;7.18;5.70;;;;;;;;;;5123466;27;20023;-75
2022/10/05 02:43:28;;;;;;;8.82;5.93;;;;;;;;;;5122948;27;20019;-75
2022/10/05 02:46:23;;;;;;;7.22;5.32;;;;;;;;;;5123158;27;20027;-74
2022/10/05 02:49:25;;;;;;;8.52;5.28;;;;;;;;;;5138311;27;20394;-73
2022/10/05 02:52:11;;;;;;;9.38;5.60;;;;;;;;;;5136980;27;20459;-74
2022/10/05 02:55:02;;;;;;;8.32;5.10;;;;;;;;;;5137256;27;20047;-74
2022/10/05 02:57:53;;;;;;;7.72;5.95;;;;;;;;;;5137712;27;20359;-74
2022/10/05 03:00:46;;;;;;;9.77;5.38;;;;;;;;;;5123469;27;20385;-75
2022/10/05 03:03:36;;;;;;;9.05;5.22;;;;;;;;;;5138129;27;20023;-74
2022/10/05 03:06:27;;;;;;;10.32;6.00;;;;;;;;;;5123188;27;20441;-75
2022/10/05 03:09:16;;;;;;;6.80;5.82;;;;;;;;;;5137256;27;20022;-74
2022/10/05 03:12:02;;;;;;;8.30;5.40;;;;;;;;;;5137580;27;20400;-75
2022/10/05 03:14:47;;;;;;;7.50;4.95;;;;;;;;;;5137275;27;20031;-74
2022/10/05 03:17:44;;;;;;;12.73;6.43;;;;;;;;;;5137125;27;20356;-73
2022/10/05 03:20:37;;;;;;;8.75;6.30;;;;;;;;;;5123052;27;20087;-75
2022/10/05 03:23:41;;;;;;;8.93;5.95;;;;;;;;;;5136928;27;20038;-74
2022/10/05 03:26:36;;;;;;;8.13;5.57;;;;;;;;;;5137572;27;20034;-75
2022/10/05 03:29:24;;;;;;;9.00;5.80;;;;;;;;;;5137099;27;20020;-75
2022/10/05 03:32:19;;;;;;;8.30;6.10;;;;;;;;;;5136981;27;20019;-74
2022/10/05 03:35:16;;;;;;;8.23;6.45;;;;;;;;;;5136966;27;20484;-74
2022/10/05 03:38:06;;;;;;;8.18;6.45;;;;;;;;;;5136735;27;20023;-75
2022/10/05 03:40:52;;;;;;;7.53;5.97;;;;;;;;;;5137177;27;20015;-75
2022/10/05 03:43:47;;;;;;;8.45;6.30;;;;;;;;;;5137079;27;20027;-75
2022/10/05 03:46:51;;;;;;;8.52;6.75;;;;;;;;;;5136973;27;20125;-75
2022/10/05 03:49:36;;;;;;;10.38;6.45;;;;;;;;;;5136530;27;20035;-74
2022/10/05 03:52:28;;;;;;;9.23;6.53;;;;;;;;;;5135959;27;20452;-74
2022/10/05 03:55:14;;;;;;;41.03;26.33;;;;;;;;;;5135899;27;20043;-75
2022/10/05 03:58:05;;;;;;;11.85;8.07;;;;;;;;;;5127244;27;20011;-73
2022/10/05 04:00:54;;;;;;;15.52;8.20;;;;;;;;;;5125328;27;20051;-73
2022/10/05 04:03:45;;;;;;;12.90;8.15;;;;;;;;;;5136530;27;20110;-74
2022/10/05 04:06:34;;;;;;;13.07;7.68;;;;;;;;;;5122284;27;20460;-74
2022/10/05 04:09:22;;;;;;;12.27;8.45;;;;;;;;;;5136869;27;20504;-73
2022/10/05 04:12:18;;;;;;;12.20;8.40;;;;;;;;;;5120446;27;20098;-73
2022/10/05 04:15:18;;;;;;;13.95;8.45;;;;;;;;;;5135782;27;20011;-72
2022/10/05 04:18:30;;;;;;;14.80;7.93;;;;;;;;;;5136822;27;20026;-73
2022/10/05 04:21:20;;;;;;;19.85;8.45;;;;;;;;;;5136604;27;20124;-74
2022/10/05 04:24:12;;;;;;;12.30;7.72;;;;;;;;;;5136531;27;20041;-73
2022/10/05 04:27:00;;;;;;;9.95;7.57;;;;;;;;;;5136725;27;20051;-74
2022/10/05 04:29:54;;;;;;;13.02;7.60;;;;;;;;;;5136736;27;20102;-73
2022/10/05 04:32:51;;;;;;;11.57;8.00;;;;;;;;;;5121368;27;20022;-73
2022/10/05 04:35:50;;;;;;;11.38;7.65;;;;;;;;;;5119995;27;20116;-73
2022/10/05 04:38:47;;;;;;;13.95;8.32;;;;;;;;;;5136362;27;20031;-73
2022/10/05 04:41:39;;;;;;;12.88;8.30;;;;;;;;;;5121419;27;20059;-74
2022/10/05 04:44:54;;;;;;;21.73;8.68;;;;;;;;;;5134858;27;20019;-74
2022/10/05 04:47:43;;;;;;;10.13;7.85;;;;;;;;;;5128979;27;20035;-73
2022/10/05 04:50:31;;;;;;;16.65;9.02;;;;;;;;;;5134741;27;20472;-74
2022/10/05 04:53:17;;;;;;;10.88;7.93;;;;;;;;;;5134242;27;20026;-72
2022/10/05 04:56:10;;;;;;;20.88;8.13;;;;;;;;;;5135058;27;20433;-73
2022/10/05 04:59:01;;;;;;;15.82;8.88;;;;;;;;;;5135593;27;20015;-74
2022/10/05 05:01:47;;;;;;;13.88;8.45;;;;;;;;;;5134279;27;20448;-72
2022/10/05 05:04:41;;;;;;;19.30;8.50;;;;;;;;;;5135536;27;20054;-73
2022/10/05 05:07:36;;;;;;;11.68;7.93;;;;;;;;;;5120482;27;20110;-73
2022/10/05 05:10:38;;;;;;;17.17;8.55;;;;;;;;;;5135451;27;20015;-73
2022/10/05 05:13:26;;;;;;;10.13;7.55;;;;;;;;;;5134784;27;20058;-72
2022/10/05 05:16:41;;;;;;;13.68;8.27;;;;;;;;;;5134193;27;20011;-74
2022/10/05 05:19:42;;;;;;;12.35;8.23;;;;;;;;;;5058702;27;20122;-73
2022/10/05 05:22:32;;;;;;;14.43;8.32;;;;;;;;;;5120102;27;20098;-73
2022/10/05 05:25:18;;;;;;;19.45;7.90;;;;;;;;;;5134385;27;20050;-73
2022/10/05 05:28:19;;;;;;;12.50;8.07;;;;;;;;;;5135437;27;20033;-73
2022/10/05 05:31:27;;;;;;;11.40;8.27;;;;;;;;;;5134189;27;20407;-73
2022/10/05 05:34:31;;;;;;;11.50;8.05;;;;;;;;;;5135855;27;20106;-73
2022/10/05 05:37:17;;;;;;;11.32;7.20;;;;;;;;;;5134684;27;20019;-73
2022/10/05 05:40:09;;;;;;;12.52;7.45;;;;;;;;;;5133815;27;20395;-73
2022/10/05 05:42:57;;;;;;;14.50;8.18;;;;;;;;;;5134982;27;20031;-72
2022/10/05 05:45:47;;;;;;;12.73;7.60;;;;;;;;;;5119954;27;20023;-72
2022/10/05 05:48:41;;;;;;;9.77;7.47;;;;;;;;;;5135246;27;20368;-72
2022/10/05 05:51:34;;;;;;;16.15;10.05;;;;;;;;;;5135110;27;20453;-74
2022/10/05 05:54:23;;;;;;;13.82;8.07;;;;;;;;;;5134153;27;20143;-73
2022/10/05 05:57:20;;;;;;;12.98;8.40;;;;;;;;;;5133359;28;20023;-73
2022/10/05 06:00:15;;;;;;;10.27;7.95;;;;;;;;;;5134310;28;20019;-74
2022/10/05 06:03:00;;;;;;;13.95;8.27;;;;;;;;;;5134221;28;20023;-73
2022/10/05 06:06:07;;;;;;;12.25;7.57;;;;;;;;;;5133713;28;20058;-72
2022/10/05 06:08:55;;;;;;;10.82;7.05;;;;;;;;;;5134205;28;20084;-73
2022/10/05 06:11:49;;;;;;;13.13;7.75;;;;;;;;;;5135070;28;20027;-75
2022/10/05 06:14:55;;;;;;;14.90;8.32;;;;;;;;;;5135155;28;20349;-75
2022/10/05 06:17:47;;;;;;;14.15;8.60;;;;;;;;;;5134772;28;20011;-74
2022/10/05 06:20:35;;;;;;;13.65;7.93;;;;;;;;;;5135035;28;20023;-74
2022/10/05 06:23:24;;;;;;;12.05;8.00;;;;;;;;;;5134740;28;20023;-74
2022/10/05 06:26:09;;;;;;;10.27;7.25;;;;;;;;;;5134350;28;20011;-74
2022/10/05 06:28:57;;;;;;;11.80;7.57;;;;;;;;;;5133990;28;20027;-74
2022/10/05 06:32:05;;;;;;;12.63;7.68;;;;;;;;;;5134949;28;20414;-75
2022/10/05 06:35:03;;;;;;;16.05;7.90;;;;;;;;;;5132893;28;20057;-74
2022/10/05 06:37:55;;;;;;;16.27;9.40;;;;;;;;;;5133368;28;20022;-74
2022/10/05 06:41:00;;;;;;;15.30;7.85;;;;;;;;;;5134006;28;20019;-74
2022/10/05 06:43:59;;;;;;;13.55;8.50;;;;;;;;;;5119615;28;20023;-73
2022/10/05 06:47:03;;;;;;;11.52;7.97;;;;;;;;;;5134754;28;20015;-74
2022/10/05 06:50:08;;;;;;;11.82;7.13;;;;;;;;;;5133337;28;20074;-75
2022/10/05 06:53:02;;;;;;;10.57;6.57;;;;;;;;;;5134026;28;20034;-75
2022/10/05 06:56:07;;;;;;;11.73;6.75;;;;;;;;;;5133544;28;20046;-74
2022/10/05 06:59:04;;;;;;;9.73;7.07;;;;;;;;;;5135985;27;20365;-74
2022/10/05 07:02:04;;;;;;;8.52;6.38;;;;;;;;;;5137949;27;20034;-73
2022/10/05 07:04:59;;;;;;;12.80;7.78;;;;;;;;;;5123846;27;20084;-73
2022/10/05 07:08:08;;;;;;;16.10;10.57;;;;;;;;;;5136747;27;20021;-74
2022/10/05 07:11:01;;;;;;;8.57;6.18;;;;;;;;;;5137789;27;20015;-75
2022/10/05 07:13:46;;;;;;;9.60;6.65;;;;;;;;;;5137117;27;20011;-74
2022/10/05 07:16:41;;;;;;;9.43;6.10;;;;;;;;;;5123696;27;20459;-74
2022/10/05 07:19:33;;;;;;;11.20;5.88;;;;;;;;;;5137885;27;20027;-74
2022/10/05 07:22:34;;;;;;;11.50;7.50;;;;;;;;;;5122232;27;20019;-74
2022/10/05 07:25:27;;;;;;;11.32;6.82;;;;;;;;;;5136780;27;20041;-74
2022/10/05 07:28:28;;;;;;;12.38;7.38;;;;;;;;;;5137964;27;20095;-74
2022/10/05 07:31:19;;;;;;;8.43;6.00;;;;;;;;;;5136199;27;20026;-73
2022/10/05 07:34:19;;;;;;;9.52;6.95;;;;;;;;;;5137137;27;20023;-74
2022/10/05 07:40:22;;;;;;;7.38;5.63;;;;;;;;;;5137677;27;20047;-74
2022/10/05 07:43:07;;;;;;;9.88;6.05;;;;;;;;;;5136858;27;20342;-74
2022/10/05 07:46:00;;;;;;;8.75;6.30;;;;;;;;;;5137666;27;20066;-74
2022/10/05 07:48:55;;;;;;;9.40;6.82;;;;;;;;;;5136953;27;20027;-75
2022/10/05 07:51:44;;;;;;;8.48;5.53;;;;;;;;;;5141210;27;20038;-76
2022/10/05 07:54:30;;;;;;;11.65;6.55;;;;;;;;;;5136759;27;20039;-75
2022/10/05 07:57:21;;;;;;;15.68;5.88;;;;;;;;;;5136435;27;20067;-74
2022/10/05 08:00:13;;;;;;;8.95;5.45;;;;;;;;;;5136958;27;20080;-73
2022/10/05 08:03:05;;;;;;;8.18;6.28;;;;;;;;;;5137038;27;20027;-74
2022/10/05 08:05:50;;;;;;;11.25;6.88;;;;;;;;;;5137121;27;20437;-75
2022/10/05 08:08:57;;;;;;;10.07;6.40;;;;;;;;;;5136620;27;20041;-76
2022/10/05 08:11:55;;;;;;;9.95;6.18;;;;;;;;;;5136454;27;20034;-75
2022/10/05 08:14:50;;;;;;;7.50;5.68;;;;;;;;;;5136603;27;20109;-76
2022/10/05 08:17:58;;;;;;;9.13;4.90;;;;;;;;;;5136205;27;20095;-75
2022/10/05 08:20:50;;;;;;;8.52;4.68;;;;;;;;;;5121839;27;20030;-75
2022/10/05 08:23:57;;;;;;;11.25;6.55;;;;;;;;;;5135821;27;20358;-75
2022/10/05 08:27:00;;;;;;;7.53;5.50;;;;;;;;;;5136023;27;20023;-75
2022/10/05 08:29:54;;;;;;;14.93;9.25;;;;;;;;;;5136496;27;20374;-75
2022/10/05 08:32:45;;;;;;;9.90;5.45;;;;;;;;;;5135655;27;20025;-76
2022/10/05 08:35:32;;;;;;;9.15;5.43;;;;;;;;;;5136015;27;20330;-76
2022/10/05 08:38:20;;;;;;;7.05;4.85;;;;;;;;;;5135346;27;20019;-76
2022/10/05 08:41:24;;;;;;;7.40;4.57;;;;;;;;;;5136689;27;20042;-75
2022/10/05 08:44:25;;;;;;;12.43;5.30;;;;;;;;;;5135790;27;20015;-76
2022/10/05 08:47:29;;;;;;;10.07;4.63;;;;;;;;;;5134551;27;20045;-75
2022/10/05 08:50:17;;;;;;;9.95;6.25;;;;;;;;;;5134561;27;20114;-74
2022/10/05 08:53:18;;;;;;;14.85;8.98;;;;;;;;;;5135048;27;20106;-75
2022/10/05 08:56:19;;;;;;;8.68;4.68;;;;;;;;;;5135128;27;20519;-75
2022/10/05 08:59:17;;;;;;;7.22;4.60;;;;;;;;;;5120999;27;20159;-75
2022/10/05 09:02:03;;;;;;;8.93;4.78;;;;;;;;;;5135033;27;20019;-74
2022/10/05 09:04:58;;;;;;;6.88;4.10;;;;;;;;;;5135345;27;20023;-75
2022/10/05 09:07:54;;;;;;;8.10;4.47;;;;;;;;;;5135113;27;20031;-74
2022/10/05 09:11:12;;;;;;;16.63;4.70;;;;;;;;;;5135822;27;20019;-74
2022/10/05 09:14:05;;;;;;;5.15;4.10;;;;;;;;;;5093714;27;20030;-76
2022/10/05 09:16:54;;;;;;;6.90;3.90;;;;;;;;;;5134884;27;20109;-75
2022/10/05 09:19:58;;;;;;;6.20;4.30;;;;;;;;;;5134645;27;20084;-74
2022/10/05 09:22:55;;;;;;;5.15;4.25;;;;;;;;;;5134495;27;20460;-74
2022/10/05 09:25:43;;;;;;;4.93;3.88;;;;;;;;;;5135743;27;20449;-73
2022/10/05 09:28:31;;;;;;;6.55;4.40;;;;;;;;;;5135321;27;20054;-74
2022/10/05 09:31:20;;;;;;;8.27;5.93;;;;;;;;;;5134515;27;20498;-75
2022/10/05 09:34:28;;;;;;;9.13;5.60;;;;;;;;;;5134576;27;20049;-75
2022/10/05 09:37:29;;;;;;;8.82;4.80;;;;;;;;;;5133862;27;20015;-74
2022/10/05 09:40:33;;;;;;;6.97;4.47;;;;;;;;;;5134782;27;20034;-74
2022/10/05 09:43:39;;;;;;;5.50;4.15;;;;;;;;;;5134202;27;20031;-75
2022/10/05 09:46:36;;;;;;;6.28;4.20;;;;;;;;;;5134420;27;20042;-73
2022/10/05 09:49:25;;;;;;;9.27;5.13;;;;;;;;;;5134827;27;20023;-76
2022/10/05 09:52:19;;;;;;;6.13;4.25;;;;;;;;;;5135127;27;20045;-74
2022/10/05 09:55:25;;;;;;;6.10;4.63;;;;;;;;;;5133814;27;20043;-74
2022/10/05 09:58:30;;;;;;;9.07;4.50;;;;;;;;;;5091505;28;20023;-75
2022/10/05 10:01:31;;;;;;;5.30;4.30;;;;;;;;;;5134083;28;20027;-74
2022/10/05 10:04:25;;;;;;;7.35;4.85;;;;;;;;;;5134472;28;20026;-75
2022/10/05 10:07:10;;;;;;;8.45;4.68;;;;;;;;;;5118756;28;20461;-74
2022/10/05 10:10:14;;;;;;;7.80;4.82;;;;;;;;;;5133909;28;20337;-74
2022/10/05 10:13:35;;;;;;;8.93;4.60;;;;;;;;;;5135499;28;20019;-75
2022/10/05 10:16:27;;;;;;;6.95;4.40;;;;;;;;;;5032467;28;20022;-74
2022/10/05 10:19:19;;;;;;;10.18;4.70;;;;;;;;;;5119512;28;20019;-75
2022/10/05 10:22:22;;;;;;;6.40;4.18;;;;;;;;;;5133881;28;20471;-74
2022/10/05 10:25:37;;;;;;;7.95;4.90;;;;;;;;;;5133608;28;20012;-74
2022/10/05 10:28:29;;;;;;;5.85;4.03;;;;;;;;;;5133508;28;20126;-74
2022/10/05 10:31:33;;;;;;;6.88;4.68;;;;;;;;;;5134248;28;20026;-75
2022/10/05 10:34:18;;;;;;;7.15;4.70;;;;;;;;;;5121416;27;20015;-74
2022/10/05 10:37:22;;;;;;;10.82;6.88;;;;;;;;;;5137708;27;20054;-75
2022/10/05 10:40:24;;;;;;;8.55;4.90;;;;;;;;;;5137926;27;20023;-75
2022/10/05 10:43:29;;;;;;;8.15;4.80;;;;;;;;;;5123607;27;20026;-75
2022/10/05 10:46:23;;;;;;;8.63;4.88;;;;;;;;;;5137769;27;20098;-74
2022/10/05 10:49:25;;;;;;;6.72;4.60;;;;;;;;;;5136819;27;20042;-75
2022/10/05 10:52:10;;;;;;;6.75;3.90;;;;;;;;;;5138101;27;20046;-75
2022/10/05 10:55:11;;;;;;;5.13;3.75;;;;;;;;;;5122740;27;20047;-75
2022/10/05 10:58:19;;;;;;;5.38;3.72;;;;;;;;;;5137870;27;20039;-75
2022/10/05 11:01:23;;;;;;;6.53;4.85;;;;;;;;;;5138224;27;20121;-74
2022/10/05 11:04:18;;;;;;;9.18;4.40;;;;;;;;;;5137938;27;20019;-76
2022/10/05 11:07:14;;;;;;;6.97;4.60;;;;;;;;;;5138286;27;20406;-75
2022/10/05 11:10:00;;;;;;;4.22;3.33;;;;;;;;;;5137898;27;20334;-76
2022/10/05 11:12:46;;;;;;;5.97;3.58;;;;;;;;;;5137755;27;20094;-76
2022/10/05 11:15:50;;;;;;;6.10;3.17;;;;;;;;;;5138698;27;20436;-76
2022/10/05 11:18:55;;;;;;;6.55;3.25;;;;;;;;;;5123038;27;20088;-76
2022/10/05 11:21:43;;;;;;;7.68;2.80;;;;;;;;;;5137598;27;20027;-76
2022/10/05 11:24:42;;;;;;;3.10;2.13;;;;;;;;;;5137547;27;20023;-76
2022/10/05 11:27:46;;;;;;;4.53;2.50;;;;;;;;;;5136613;27;20019;-76
2022/10/05 11:30:51;;;;;;;3.08;2.50;;;;;;;;;;5122405;27;20019;-76
2022/10/05 11:33:55;;;;;;;8.02;2.90;;;;;;;;;;5137352;27;20106;-76
2022/10/05 11:36:49;;;;;;;3.72;2.50;;;;;;;;;;5137558;27;20015;-76
2022/10/05 11:39:42;;;;;;;5.30;2.78;;;;;;;;;;5123238;27;20047;-75
2022/10/05 11:42:38;;;;;;;5.75;3.00;;;;;;;;;;5122107;27;20026;-76
2022/10/05 11:45:44;;;;;;;3.42;2.80;;;;;;;;;;5120012;27;20114;-75
2022/10/05 11:48:39;;;;;;;5.35;3.15;;;;;;;;;;5083038;27;20053;-76
2022/10/05 11:51:27;;;;;;;15.90;3.92;;;;;;;;;;5136385;27;20037;-75
2022/10/05 11:54:16;;;;;;;5.40;3.15;;;;;;;;;;5136515;27;20511;-74
2022/10/05 11:57:02;;;;;;;5.28;3.40;;;;;;;;;;5136511;27;20106;-75
2022/10/05 11:59:53;;;;;;;5.47;2.75;;;;;;;;;;5136769;27;20019;-74
2022/10/05 12:02:51;;;;;;;5.30;2.80;;;;;;;;;;5121889;27;20019;-76
2022/10/05 12:05:44;;;;;;;4.35;2.65;;;;;;;;;;5136811;27;20015;-74
2022/10/05 12:08:33;;;;;;;3.67;2.63;;;;;;;;;;5120376;27;20357;-74
2022/10/05 12:11:30;;;;;;;8.85;3.33;;;;;;;;;;5136508;27;20034;-73
2022/10/05 12:14:27;;;;;;;24.33;4.38;;;;;;;;;;5136416;27;20379;-75
2022/10/05 12:17:23;;;;;;;9.75;4.03;;;;;;;;;;5135036;27;20019;-74
2022/10/05 12:20:26;;;;;;;11.48;3.63;;;;;;;;;;5135935;27;20033;-74
2022/10/05 12:23:33;;;;;;;7.03;3.10;;;;;;;;;;5121499;27;20015;-74
2022/10/05 12:26:19;;;;;;;3.22;2.55;;;;;;;;;;5137160;27;20027;-72
2022/10/05 12:29:14;;;;;;;6.55;3.15;;;;;;;;;;5135666;27;20449;-71
2022/10/05 12:32:03;;;;;;;4.07;2.97;;;;;;;;;;5138526;27;20027;-72
2022/10/05 12:34:48;;;;;;;4.43;3.20;;;;;;;;;;5121958;27;20019;-73
2022/10/05 12:38:03;;;;;;;8.43;3.35;;;;;;;;;;5136355;27;20098;-72
2022/10/05 12:41:03;;;;;;;9.35;5.35;;;;;;;;;;5129495;27;20042;-74
2022/10/05 12:43:53;;;;;;;4.93;3.05;;;;;;;;;;5121014;27;20029;-73
2022/10/05 12:46:41;;;;;;;4.80;3.10;;;;;;;;;;5121114;27;20027;-73
2022/10/05 12:49:35;;;;;;;3.95;3.10;;;;;;;;;;5134738;27;20353;-73
2022/10/05 12:52:36;;;;;;;8.63;3.33;;;;;;;;;;5136385;27;20026;-73
2022/10/05 12:55:24;;;;;;;4.22;3.00;;;;;;;;;;5119953;27;20051;-72
2022/10/05 12:58:25;;;;;;;5.78;2.85;;;;;;;;;;5134848;27;20030;-72
2022/10/05 13:01:29;;;;;;;3.83;2.65;;;;;;;;;;5135144;27;20027;-72
2022/10/05 13:04:27;;;;;;;6.25;3.28;;;;;;;;;;5135032;27;20463;-70
2022/10/05 13:07:23;;;;;;;4.55;3.40;;;;;;;;;;5120677;27;20051;-71
2022/10/05 13:10:08;;;;;;;5.68;3.00;;;;;;;;;;5120251;27;20049;-72
2022/10/05 13:12:54;;;;;;;4.68;2.67;;;;;;;;;;5120533;27;20019;-72
2022/10/05 13:15:49;;;;;;;3.90;3.30;;;;;;;;;;5120427;27;20029;-71
2022/10/05 13:18:43;;;;;;;4.57;2.60;;;;;;;;;;5134821;27;20047;-72
2022/10/05 13:21:28;;;;;;;4.07;2.63;;;;;;;;;;5134687;27;20015;-71
2022/10/05 13:24:16;;;;;;;2.45;2.00;;;;;;;;;;5134454;27;20173;-72
2022/10/05 13:27:07;;;;;;;3.22;2.47;;;;;;;;;;5134875;27;20349;-72
2022/10/05 13:29:58;;;;;;;4.07;2.08;;;;;;;;;;5134981;27;20026;-71
2022/10/05 13:32:46;;;;;;;3.20;2.47;;;;;;;;;;5120822;27;20110;-72
2022/10/05 13:35:42;;;;;;;4.65;2.15;;;;;;;;;;5134835;27;20019;-71
2022/10/05 13:38:47;;;;;;;2.00;1.80;;;;;;;;;;5135486;27;20019;-72
2022/10/05 13:41:51;;;;;;;2.65;2.20;;;;;;;;;;5119844;27;20097;-71
2022/10/05 13:44:41;;;;;;;4.93;2.30;;;;;;;;;;5134374;27;20020;-71
2022/10/05 13:47:34;;;;;;;2.50;2.03;;;;;;;;;;5134494;27;20042;-72
2022/10/05 13:50:22;;;;;;;4.28;1.88;;;;;;;;;;5135120;27;20026;-71
2022/10/05 13:53:26;;;;;;;4.75;1.67;;;;;;;;;;5134449;27;20429;-72
2022/10/05 13:56:19;;;;;;;2.80;2.00;;;;;;;;;;5134654;28;20066;-72
2022/10/05 13:59:14;;;;;;;4.20;1.67;;;;;;;;;;5119667;28;20019;-72
2022/10/05 14:02:03;;;;;;;5.38;1.98;;;;;;;;;;5134393;28;20053;-74
2022/10/05 14:04:50;;;;;;;1.83;1.60;;;;;;;;;;5135446;28;20062;-71
2022/10/05 14:07:37;;;;;;;6.10;1.88;;;;;;;;;;5135576;27;20145;-72
2022/10/05 14:10:40;;;;;;;3.38;1.90;;;;;;;;;;5137272;27;20019;-72
2022/10/05 14:13:31;;;;;;;1.92;1.60;;;;;;;;;;5123096;27;20540;-72
2022/10/05 14:16:21;;;;;;;2.75;1.40;;;;;;;;;;5138535;27;20029;-73
2022/10/05 14:19:06;;;;;;;4.03;1.70;;;;;;;;;;5137868;27;20351;-74
2022/10/05 14:22:09;;;;;;;3.25;2.00;;;;;;;;;;5138985;27;20022;-78
2022/10/05 14:25:01;;;;;;;1.90;1.60;;;;;;;;;;5138594;27;20409;-77
2022/10/05 14:27:46;;;;;;;1.92;1.70;;;;;;;;;;5138271;27;20507;-75
2022/10/05 14:30:32;;;;;;;7.32;2.53;;;;;;;;;;5138444;27;20054;-74
2022/10/05 14:33:25;;;;;;;5.43;2.20;;;;;;;;;;5124307;27;20015;-74
2022/10/05 14:36:15;;;;;;;6.75;2.63;;;;;;;;;;5137883;27;20018;-72
2022/10/05 14:39:03;;;;;;;9.57;3.08;;;;;;;;;;5137912;27;20047;-73
2022/10/05 14:41:49;;;;;;;6.70;3.20;;;;;;;;;;5123538;27;20034;-72
2022/10/05 14:44:35;;;;;;;6.22;3.00;;;;;;;;;;5138436;27;20337;-72
2022/10/05 14:47:21;;;;;;;4.22;2.50;;;;;;;;;;5138031;27;20027;-73
2022/10/05 14:50:14;;;;;;;6.65;2.88;;;;;;;;;;5138883;27;20019;-72
2022/10/05 14:53:08;;;;;;;5.72;3.30;;;;;;;;;;5138768;27;20048;-72
2022/10/05 14:56:15;;;;;;;6.18;3.00;;;;;;;;;;5137769;27;20034;-71
2022/10/05 14:59:10;;;;;;;5.05;2.65;;;;;;;;;;5138711;27;20468;-72
2022/10/05 15:02:01;;;;;;;8.70;3.95;;;;;;;;;;5137110;27;20477;-72
2022/10/05 15:04:56;;;;;;;2.97;2.15;;;;;;;;;;5137594;27;20512;-73
2022/10/05 15:07:47;;;;;;;3.42;2.72;;;;;;;;;;5138325;27;20084;-72
2022/10/05 15:10:40;;;;;;;7.13;3.05;;;;;;;;;;5137531;27;20019;-71
2022/10/05 15:13:37;;;;;;;5.05;2.95;;;;;;;;;;5139801;27;20395;-72
2022/10/05 15:16:27;;;;;;;5.35;3.03;;;;;;;;;;5138537;27;20012;-71
2022/10/05 15:19:26;;;;;;;5.72;2.92;;;;;;;;;;5136247;27;20033;-72
2022/10/05 15:22:21;;;;;;;5.22;2.90;;;;;;;;;;5135912;27;20055;-72
2022/10/05 15:25:13;;;;;;;6.00;2.95;;;;;;;;;;5122707;27;20015;-72
2022/10/05 15:28:04;;;;;;;6.25;3.22;;;;;;;;;;5137032;27;20098;-72
2022/10/05 15:30:58;;;;;;;5.40;3.22;;;;;;;;;;5137550;27;20357;-72
2022/10/05 15:34:01;;;;;;;5.07;2.80;;;;;;;;;;5137787;27;20027;-72
2022/10/05 15:36:47;;;;;;;6.32;2.80;;;;;;;;;;5137396;27;20019;-72
2022/10/05 15:39:33;;;;;;;12.98;3.70;;;;;;;;;;5122447;27;20494;-72
2022/10/05 15:42:44;;;;;;;7.30;3.10;;;;;;;;;;5137245;27;20030;-71
2022/10/05 15:45:31;;;;;;;7.25;3.25;;;;;;;;;;5136702;27;20023;-72
2022/10/05 15:48:41;;;;;;;15.05;5.03;;;;;;;;;;5137261;27;20023;-73
2022/10/05 15:51:27;;;;;;;8.50;4.10;;;;;;;;;;5103166;27;20093;-72
2022/10/05 15:57:36;;;;;;;10.15;4.05;;;;;;;;;;5137437;27;20031;-73
2022/10/05 16:00:24;;;;;;;14.65;5.30;;;;;;;;;;5122098;27;20023;-72
2022/10/05 16:03:28;;;;;;;16.25;5.40;;;;;;;;;;5136911;27;20087;-72
2022/10/05 16:09:20;;;;;;;16.75;5.60;;;;;;;;;;5137029;27;20027;-73
2022/10/05 16:12:17;;;;;;;18.92;5.50;;;;;;;;;;5135751;27;20030;-72
2022/10/05 16:15:25;;;;;;;18.60;5.78;;;;;;;;;;5136507;27;20023;-72
2022/10/05 16:18:23;;;;;;;10.30;5.03;;;;;;;;;;5122044;27;20432;-73
2022/10/05 16:21:12;;;;;;;13.13;5.70;;;;;;;;;;5135279;27;20027;-72
2022/10/05 16:23:58;;;;;;;14.15;6.28;;;;;;;;;;5121533;27;20026;-74
2022/10/05 16:26:49;;;;;;;16.70;7.55;;;;;;;;;;5135673;27;20038;-72
2022/10/05 16:29:35;;;;;;;21.85;8.20;;;;;;;;;;5135060;27;20069;-73
2022/10/05 16:32:23;;;;;;;20.42;6.80;;;;;;;;;;5135746;27;20020;-72
2022/10/05 16:35:27;;;;;;;18.70;6.50;;;;;;;;;;5135794;27;20023;-72
2022/10/05 16:38:19;;;;;;;17.52;6.25;;;;;;;;;;5121319;27;20026;-72
2022/10/05 16:41:20;;;;;;;26.92;7.00;;;;;;;;;;5121205;27;20024;-71
2022/10/05 16:44:12;;;;;;;18.88;6.82;;;;;;;;;;5121216;27;20051;-72
2022/10/05 16:47:16;;;;;;;21.83;7.20;;;;;;;;;;5119916;27;20106;-72
2022/10/05 16:50:03;;;;;;;23.80;7.38;;;;;;;;;;5135899;27;20027;-72
2022/10/05 16:53:08;;;;;;;19.10;7.63;;;;;;;;;;5135286;27;20067;-72
2022/10/05 16:55:59;;;;;;;25.60;7.85;;;;;;;;;;5135899;27;20130;-73
2022/10/05 16:58:47;;;;;;;23.80;8.40;;;;;;;;;;5120188;27;20019;-72
2022/10/05 17:01:47;;;;;;;17.55;8.02;;;;;;;;;;5137080;27;20027;-72
2022/10/05 17:04:42;;;;;;;22.48;7.90;;;;;;;;;;5135773;27;20031;-72
2022/10/05 17:07:27;;;;;;;16.65;8.00;;;;;;;;;;5134490;27;20027;-71
2022/10/05 17:10:19;;;;;;;24.35;8.77;;;;;;;;;;5134827;27;20031;-72
2022/10/05 17:13:23;;;;;;;18.33;8.68;;;;;;;;;;5134700;27;20041;-72
2022/10/05 17:16:28;;;;;;;18.42;8.70;;;;;;;;;;5120855;27;20015;-72
2022/10/05 17:19:27;;;;;;;18.70;9.23;;;;;;;;;;5120395;27;20060;-71
2022/10/05 17:22:23;;;;;;;17.08;8.60;;;;;;;;;;5120638;27;20460;-71
2022/10/05 17:25:23;;;;;;;17.48;9.35;;;;;;;;;;5135529;27;20406;-72
2022/10/05 17:28:17;;;;;;;17.63;9.13;;;;;;;;;;5135729;27;20102;-72
2022/10/05 17:31:22;;;;;;;19.27;9.77;;;;;;;;;;5134672;27;20022;-71